sensor_id;sensor_type;location;lat;lon;timestamp;temperature;humidity
52267;DHT22;38223;50.940;4.034;2023-08-12T00:02:34;22.30;99.90
52267;DHT22;38223;50.940;4.034;2023-08-12T00:05:04;22.40;99.90
52267;DHT22;38223;50.940;4.034;2023-08-12T00:07:38;22.50;99.90
52267;DHT22;38223;50.940;4.034;2023-08-12T00:10:11;22.50;99.90
52267;DHT22;38223;50.940;4.034;2023-08-12T00:12:47;22.40;99.90
52267;DHT22;38223;50.940;4.034;2023-08-12T00:15:14;22.30;99.90
52267;DHT22;38223;50.940;4.034;2023-08-12T00:17:46;22.20;99.90
52267;DHT22;38223;50.940;4.034;2023-08-12T00:20:17;22.10;99.90
52267;DHT22;38223;50.940;4.034;2023-08-12T00:22:52;22.20;99.90
52267;DHT22;38223;50.940;4.034;2023-08-12T00:25:23;22.30;99.90
52267;DHT22;38223;50.940;4.034;2023-08-12T00:27:55;22.10;99.90
52267;DHT22;38223;50.940;4.034;2023-08-12T00:30:27;22.10;99.90
52267;DHT22;38223;50.940;4.034;2023-08-12T00:32:59;22.10;99.90
52267;DHT22;38223;50.940;4.034;2023-08-12T00:35:31;22.10;99.90
52267;DHT22;38223;50.940;4.034;2023-08-12T00:38:01;22.10;99.90
52267;DHT22;38223;50.940;4.034;2023-08-12T00:40:33;22.00;99.90
52267;DHT22;38223;50.940;4.034;2023-08-12T00:43:09;22.00;99.90
52267;DHT22;38223;50.940;4.034;2023-08-12T00:45:41;22.10;99.90
52267;DHT22;38223;50.940;4.034;2023-08-12T00:48:12;22.00;99.90
52267;DHT22;38223;50.940;4.034;2023-08-12T00:50:46;22.10;99.90
52267;DHT22;38223;50.940;4.034;2023-08-12T00:53:18;22.10;99.90
52267;DHT22;38223;50.940;4.034;2023-08-12T00:55:56;22.20;99.90
52267;DHT22;38223;50.940;4.034;2023-08-12T00:58:44;22.00;99.90
52267;DHT22;38223;50.940;4.034;2023-08-12T01:01:14;22.00;99.90
52267;DHT22;38223;50.940;4.034;2023-08-12T01:03:47;22.10;99.90
52267;DHT22;38223;50.940;4.034;2023-08-12T01:06:17;22.10;99.90
52267;DHT22;38223;50.940;4.034;2023-08-12T01:08:49;22.10;99.90
52267;DHT22;38223;50.940;4.034;2023-08-12T01:11:33;22.10;99.90
52267;DHT22;38223;50.940;4.034;2023-08-12T01:14:13;22.10;99.90
52267;DHT22;38223;50.940;4.034;2023-08-12T01:16:49;22.20;99.90
52267;DHT22;38223;50.940;4.034;2023-08-12T01:19:30;22.10;99.90
52267;DHT22;38223;50.940;4.034;2023-08-12T01:21:59;21.90;99.90
52267;DHT22;38223;50.940;4.034;2023-08-12T01:24:36;21.90;99.90
52267;DHT22;38223;50.940;4.034;2023-08-12T01:27:09;22.00;99.90
52267;DHT22;38223;50.940;4.034;2023-08-12T01:29:46;22.00;99.90
52267;DHT22;38223;50.940;4.034;2023-08-12T01:35:15;22.10;99.90
52267;DHT22;38223;50.940;4.034;2023-08-12T01:37:44;22.10;99.90
52267;DHT22;38223;50.940;4.034;2023-08-12T01:43:06;22.10;99.90
52267;DHT22;38223;50.940;4.034;2023-08-12T01:45:36;22.10;99.90
52267;DHT22;38223;50.940;4.034;2023-08-12T01:48:07;22.10;99.90
52267;DHT22;38223;50.940;4.034;2023-08-12T01:50:39;22.10;99.90
52267;DHT22;38223;50.940;4.034;2023-08-12T01:53:10;22.10;99.90
52267;DHT22;38223;50.940;4.034;2023-08-12T01:55:42;22.00;99.90
52267;DHT22;38223;50.940;4.034;2023-08-12T01:58:14;22.10;99.90
52267;DHT22;38223;50.940;4.034;2023-08-12T02:00:46;22.10;99.90
52267;DHT22;38223;50.940;4.034;2023-08-12T02:06:07;22.10;99.90
52267;DHT22;38223;50.940;4.034;2023-08-12T02:08:43;22.00;99.90
52267;DHT22;38223;50.940;4.034;2023-08-12T02:11:14;22.00;99.90
52267;DHT22;38223;50.940;4.034;2023-08-12T02:13:47;21.90;99.90
52267;DHT22;38223;50.940;4.034;2023-08-12T02:16:19;22.00;99.90
52267;DHT22;38223;50.940;4.034;2023-08-12T02:18:52;22.00;99.90
52267;DHT22;38223;50.940;4.034;2023-08-12T02:21:20;22.00;99.90
52267;DHT22;38223;50.940;4.034;2023-08-12T02:23:49;22.00;99.90
52267;DHT22;38223;50.940;4.034;2023-08-12T02:26:21;22.10;99.90
52267;DHT22;38223;50.940;4.034;2023-08-12T02:28:57;22.10;99.90
52267;DHT22;38223;50.940;4.034;2023-08-12T02:31:28;21.90;99.90
52267;DHT22;38223;50.940;4.034;2023-08-12T02:34:00;21.90;99.90
52267;DHT22;38223;50.940;4.034;2023-08-12T02:36:30;21.80;99.90
52267;DHT22;38223;50.940;4.034;2023-08-12T02:39:01;21.80;99.90
52267;DHT22;38223;50.940;4.034;2023-08-12T02:41:33;21.60;99.90
52267;DHT22;38223;50.940;4.034;2023-08-12T02:44:07;21.60;99.90
52267;DHT22;38223;50.940;4.034;2023-08-12T02:46:36;21.50;99.90
52267;DHT22;38223;50.940;4.034;2023-08-12T02:49:08;21.40;99.90
52267;DHT22;38223;50.940;4.034;2023-08-12T02:51:42;21.50;99.90
52267;DHT22;38223;50.940;4.034;2023-08-12T02:54:16;21.80;99.90
52267;DHT22;38223;50.940;4.034;2023-08-12T02:56:53;21.90;99.90
52267;DHT22;38223;50.940;4.034;2023-08-12T02:59:27;21.80;99.90
52267;DHT22;38223;50.940;4.034;2023-08-12T03:01:57;21.50;99.90
52267;DHT22;38223;50.940;4.034;2023-08-12T03:04:28;21.50;99.90
52267;DHT22;38223;50.940;4.034;2023-08-12T03:06:58;21.50;99.90
52267;DHT22;38223;50.940;4.034;2023-08-12T03:09:32;21.40;99.90
52267;DHT22;38223;50.940;4.034;2023-08-12T03:12:03;21.20;99.90
52267;DHT22;38223;50.940;4.034;2023-08-12T03:14:34;21.10;99.90
52267;DHT22;38223;50.940;4.034;2023-08-12T03:17:08;21.00;99.90
52267;DHT22;38223;50.940;4.034;2023-08-12T03:19:41;20.90;99.90
52267;DHT22;38223;50.940;4.034;2023-08-12T03:22:12;20.80;99.90
52267;DHT22;38223;50.940;4.034;2023-08-12T03:24:47;20.70;99.90
52267;DHT22;38223;50.940;4.034;2023-08-12T03:27:15;20.80;99.90
52267;DHT22;38223;50.940;4.034;2023-08-12T03:29:44;20.80;99.90
52267;DHT22;38223;50.940;4.034;2023-08-12T03:32:14;20.80;99.90
52267;DHT22;38223;50.940;4.034;2023-08-12T03:34:46;20.80;99.90
52267;DHT22;38223;50.940;4.034;2023-08-12T03:37:16;20.80;99.90
52267;DHT22;38223;50.940;4.034;2023-08-12T03:39:48;20.70;99.90
52267;DHT22;38223;50.940;4.034;2023-08-12T03:42:20;20.60;99.90
52267;DHT22;38223;50.940;4.034;2023-08-12T03:44:51;20.70;99.90
52267;DHT22;38223;50.940;4.034;2023-08-12T03:47:23;20.80;99.90
52267;DHT22;38223;50.940;4.034;2023-08-12T03:49:57;20.80;99.90
52267;DHT22;38223;50.940;4.034;2023-08-12T03:52:27;20.80;99.90
52267;DHT22;38223;50.940;4.034;2023-08-12T03:54:59;20.70;99.90
52267;DHT22;38223;50.940;4.034;2023-08-12T03:57:27;20.70;99.90
52267;DHT22;38223;50.940;4.034;2023-08-12T03:59:59;20.70;99.90
52267;DHT22;38223;50.940;4.034;2023-08-12T04:02:29;20.60;99.90
52267;DHT22;38223;50.940;4.034;2023-08-12T04:05:02;20.50;99.90
52267;DHT22;38223;50.940;4.034;2023-08-12T04:07:33;20.50;99.90
52267;DHT22;38223;50.940;4.034;2023-08-12T04:10:04;20.40;99.90
52267;DHT22;38223;50.940;4.034;2023-08-12T04:12:37;20.40;99.90
52267;DHT22;38223;50.940;4.034;2023-08-12T04:15:09;20.40;99.90
52267;DHT22;38223;50.940;4.034;2023-08-12T04:17:40;20.40;99.90
52267;DHT22;38223;50.940;4.034;2023-08-12T04:20:13;20.40;99.90
52267;DHT22;38223;50.940;4.034;2023-08-12T04:22:42;20.40;99.90
52267;DHT22;38223;50.940;4.034;2023-08-12T04:25:12;20.40;99.90
52267;DHT22;38223;50.940;4.034;2023-08-12T04:27:42;20.50;99.90
52267;DHT22;38223;50.940;4.034;2023-08-12T04:30:13;20.50;99.90
52267;DHT22;38223;50.940;4.034;2023-08-12T04:32:44;20.50;99.90
52267;DHT22;38223;50.940;4.034;2023-08-12T04:35:17;20.50;99.90
52267;DHT22;38223;50.940;4.034;2023-08-12T04:37:48;20.50;99.90
52267;DHT22;38223;50.940;4.034;2023-08-12T04:40:22;20.50;99.90
52267;DHT22;38223;50.940;4.034;2023-08-12T04:42:54;20.40;99.90
52267;DHT22;38223;50.940;4.034;2023-08-12T04:45:26;20.50;99.90
52267;DHT22;38223;50.940;4.034;2023-08-12T04:47:58;20.50;99.90
52267;DHT22;38223;50.940;4.034;2023-08-12T04:50:31;20.60;99.90
52267;DHT22;38223;50.940;4.034;2023-08-12T04:53:02;20.60;99.90
52267;DHT22;38223;50.940;4.034;2023-08-12T04:55:36;20.50;99.90
52267;DHT22;38223;50.940;4.034;2023-08-12T04:58:11;20.40;99.90
52267;DHT22;38223;50.940;4.034;2023-08-12T05:00:41;20.50;99.90
52267;DHT22;38223;50.940;4.034;2023-08-12T05:03:13;20.60;99.90
52267;DHT22;38223;50.940;4.034;2023-08-12T05:05:50;20.60;99.90
52267;DHT22;38223;50.940;4.034;2023-08-12T05:08:23;20.50;99.90
52267;DHT22;38223;50.940;4.034;2023-08-12T05:10:55;20.50;99.90
52267;DHT22;38223;50.940;4.034;2023-08-12T05:13:32;20.60;99.90
52267;DHT22;38223;50.940;4.034;2023-08-12T05:16:00;20.60;99.90
52267;DHT22;38223;50.940;4.034;2023-08-12T05:18:30;20.70;99.90
52267;DHT22;38223;50.940;4.034;2023-08-12T05:21:00;20.70;99.90
52267;DHT22;38223;50.940;4.034;2023-08-12T05:23:34;20.70;99.90
52267;DHT22;38223;50.940;4.034;2023-08-12T05:26:03;20.70;99.90
52267;DHT22;38223;50.940;4.034;2023-08-12T05:28:35;20.70;99.90
52267;DHT22;38223;50.940;4.034;2023-08-12T05:31:06;20.70;99.90
52267;DHT22;38223;50.940;4.034;2023-08-12T05:33:38;20.60;99.90
52267;DHT22;38223;50.940;4.034;2023-08-12T05:36:12;20.60;99.90
52267;DHT22;38223;50.940;4.034;2023-08-12T05:38:46;20.60;99.90
52267;DHT22;38223;50.940;4.034;2023-08-12T05:41:18;20.70;99.90
52267;DHT22;38223;50.940;4.034;2023-08-12T05:43:50;20.90;99.90
52267;DHT22;38223;50.940;4.034;2023-08-12T05:46:24;20.90;99.90
52267;DHT22;38223;50.940;4.034;2023-08-12T05:48:56;20.80;99.90
52267;DHT22;38223;50.940;4.034;2023-08-12T05:51:29;20.80;99.90
52267;DHT22;38223;50.940;4.034;2023-08-12T05:54:02;20.70;99.90
52267;DHT22;38223;50.940;4.034;2023-08-12T05:56:29;20.60;99.90
52267;DHT22;38223;50.940;4.034;2023-08-12T05:59:02;20.70;99.90
52267;DHT22;38223;50.940;4.034;2023-08-12T06:01:34;20.60;99.90
52267;DHT22;38223;50.940;4.034;2023-08-12T06:04:05;20.70;99.90
52267;DHT22;38223;50.940;4.034;2023-08-12T06:06:35;20.70;99.90
52267;DHT22;38223;50.940;4.034;2023-08-12T06:09:05;20.60;99.90
52267;DHT22;38223;50.940;4.034;2023-08-12T06:11:36;20.60;99.90
52267;DHT22;38223;50.940;4.034;2023-08-12T06:14:08;20.80;99.90
52267;DHT22;38223;50.940;4.034;2023-08-12T06:16:40;20.80;99.90
52267;DHT22;38223;50.940;4.034;2023-08-12T06:19:11;20.70;99.90
52267;DHT22;38223;50.940;4.034;2023-08-12T06:21:43;20.40;99.90
52267;DHT22;38223;50.940;4.034;2023-08-12T06:24:15;20.20;99.90
52267;DHT22;38223;50.940;4.034;2023-08-12T06:26:48;20.00;99.90
52267;DHT22;38223;50.940;4.034;2023-08-12T06:29:18;19.70;99.90
52267;DHT22;38223;50.940;4.034;2023-08-12T06:31:49;19.50;99.90
52267;DHT22;38223;50.940;4.034;2023-08-12T06:34:21;19.40;99.90
52267;DHT22;38223;50.940;4.034;2023-08-12T06:36:51;19.20;99.90
52267;DHT22;38223;50.940;4.034;2023-08-12T06:39:23;19.20;99.90
52267;DHT22;38223;50.940;4.034;2023-08-12T06:41:55;19.30;99.90
52267;DHT22;38223;50.940;4.034;2023-08-12T06:44:31;19.30;99.90
52267;DHT22;38223;50.940;4.034;2023-08-12T06:46:59;19.30;99.90
52267;DHT22;38223;50.940;4.034;2023-08-12T06:49:31;19.30;99.90
52267;DHT22;38223;50.940;4.034;2023-08-12T06:52:02;19.40;99.90
52267;DHT22;38223;50.940;4.034;2023-08-12T06:54:32;19.30;99.90
52267;DHT22;38223;50.940;4.034;2023-08-12T06:57:27;19.40;99.90
52267;DHT22;38223;50.940;4.034;2023-08-12T06:59:58;19.30;99.90
52267;DHT22;38223;50.940;4.034;2023-08-12T07:02:30;19.20;99.90
52267;DHT22;38223;50.940;4.034;2023-08-12T07:05:03;19.00;99.90
52267;DHT22;38223;50.940;4.034;2023-08-12T07:07:33;19.00;99.90
52267;DHT22;38223;50.940;4.034;2023-08-12T07:10:06;18.80;99.90
52267;DHT22;38223;50.940;4.034;2023-08-12T07:12:35;18.70;99.90
52267;DHT22;38223;50.940;4.034;2023-08-12T07:15:08;18.70;99.90
52267;DHT22;38223;50.940;4.034;2023-08-12T07:17:40;18.70;99.90
52267;DHT22;38223;50.940;4.034;2023-08-12T07:20:10;18.60;99.90
52267;DHT22;38223;50.940;4.034;2023-08-12T07:22:49;18.60;99.90
52267;DHT22;38223;50.940;4.034;2023-08-12T07:25:20;18.80;99.90
52267;DHT22;38223;50.940;4.034;2023-08-12T07:27:55;18.80;99.90
52267;DHT22;38223;50.940;4.034;2023-08-12T07:30:21;18.80;99.90
52267;DHT22;38223;50.940;4.034;2023-08-12T07:32:56;18.80;99.90
52267;DHT22;38223;50.940;4.034;2023-08-12T07:35:23;18.90;99.90
52267;DHT22;38223;50.940;4.034;2023-08-12T07:37:57;18.90;99.90
52267;DHT22;38223;50.940;4.034;2023-08-12T07:40:28;18.80;99.90
52267;DHT22;38223;50.940;4.034;2023-08-12T07:42:59;19.00;99.90
52267;DHT22;38223;50.940;4.034;2023-08-12T07:45:36;19.10;99.90
52267;DHT22;38223;50.940;4.034;2023-08-12T07:48:06;19.10;99.90
52267;DHT22;38223;50.940;4.034;2023-08-12T07:50:42;19.20;99.90
52267;DHT22;38223;50.940;4.034;2023-08-12T07:53:11;19.30;99.90
52267;DHT22;38223;50.940;4.034;2023-08-12T07:55:43;19.50;99.90
52267;DHT22;38223;50.940;4.034;2023-08-12T07:58:17;19.50;99.90
52267;DHT22;38223;50.940;4.034;2023-08-12T08:00:52;19.60;99.90
52267;DHT22;38223;50.940;4.034;2023-08-12T08:03:23;19.60;99.90
52267;DHT22;38223;50.940;4.034;2023-08-12T08:06:00;19.70;99.90
52267;DHT22;38223;50.940;4.034;2023-08-12T08:08:32;19.70;99.90
52267;DHT22;38223;50.940;4.034;2023-08-12T08:11:04;19.50;99.90
52267;DHT22;38223;50.940;4.034;2023-08-12T08:13:38;19.50;99.90
52267;DHT22;38223;50.940;4.034;2023-08-12T08:16:07;19.60;99.90
52267;DHT22;38223;50.940;4.034;2023-08-12T08:18:38;19.60;99.90
52267;DHT22;38223;50.940;4.034;2023-08-12T08:21:12;19.50;99.90
52267;DHT22;38223;50.940;4.034;2023-08-12T08:23:42;19.60;99.90
52267;DHT22;38223;50.940;4.034;2023-08-12T08:26:16;19.50;99.90
52267;DHT22;38223;50.940;4.034;2023-08-12T08:28:45;19.60;99.90
52267;DHT22;38223;50.940;4.034;2023-08-12T08:31:13;19.60;99.90
52267;DHT22;38223;50.940;4.034;2023-08-12T08:33:46;19.60;99.90
52267;DHT22;38223;50.940;4.034;2023-08-12T08:36:15;19.60;99.90
52267;DHT22;38223;50.940;4.034;2023-08-12T08:38:49;19.70;99.90
52267;DHT22;38223;50.940;4.034;2023-08-12T08:41:19;19.70;99.90
52267;DHT22;38223;50.940;4.034;2023-08-12T08:43:52;19.80;99.90
52267;DHT22;38223;50.940;4.034;2023-08-12T08:46:23;19.90;99.90
52267;DHT22;38223;50.940;4.034;2023-08-12T08:48:58;20.00;99.90
52267;DHT22;38223;50.940;4.034;2023-08-12T08:51:30;20.00;99.90
52267;DHT22;38223;50.940;4.034;2023-08-12T08:54:05;20.10;99.90
52267;DHT22;38223;50.940;4.034;2023-08-12T08:56:34;20.20;99.90
52267;DHT22;38223;50.940;4.034;2023-08-12T08:59:04;20.30;99.90
52267;DHT22;38223;50.940;4.034;2023-08-12T09:01:39;20.40;99.90
52267;DHT22;38223;50.940;4.034;2023-08-12T09:04:09;20.50;99.90
52267;DHT22;38223;50.940;4.034;2023-08-12T09:06:39;20.60;99.90
52267;DHT22;38223;50.940;4.034;2023-08-12T09:09:12;20.40;99.90
52267;DHT22;38223;50.940;4.034;2023-08-12T09:11:41;20.30;99.90
52267;DHT22;38223;50.940;4.034;2023-08-12T09:14:20;20.30;99.90
52267;DHT22;38223;50.940;4.034;2023-08-12T09:16:49;20.30;99.90
52267;DHT22;38223;50.940;4.034;2023-08-12T09:19:25;20.20;99.90
52267;DHT22;38223;50.940;4.034;2023-08-12T09:21:58;20.20;99.90
52267;DHT22;38223;50.940;4.034;2023-08-12T09:24:31;20.30;99.90
52267;DHT22;38223;50.940;4.034;2023-08-12T09:26:59;20.20;99.90
52267;DHT22;38223;50.940;4.034;2023-08-12T09:29:35;20.30;99.90
52267;DHT22;38223;50.940;4.034;2023-08-12T09:32:10;20.40;99.90
52267;DHT22;38223;50.940;4.034;2023-08-12T09:34:54;20.50;99.90
52267;DHT22;38223;50.940;4.034;2023-08-12T09:37:24;20.60;99.90
52267;DHT22;38223;50.940;4.034;2023-08-12T09:39:57;20.80;99.90
52267;DHT22;38223;50.940;4.034;2023-08-12T09:42:32;21.00;99.90
52267;DHT22;38223;50.940;4.034;2023-08-12T09:45:02;21.00;99.90
52267;DHT22;38223;50.940;4.034;2023-08-12T09:47:37;21.10;99.90
52267;DHT22;38223;50.940;4.034;2023-08-12T09:50:10;21.20;99.90
52267;DHT22;38223;50.940;4.034;2023-08-12T09:52:48;21.40;99.90
52267;DHT22;38223;50.940;4.034;2023-08-12T09:55:18;21.40;99.90
52267;DHT22;38223;50.940;4.034;2023-08-12T09:57:52;21.60;99.90
52267;DHT22;38223;50.940;4.034;2023-08-12T10:00:25;21.70;99.90
52267;DHT22;38223;50.940;4.034;2023-08-12T10:02:59;21.80;99.90
52267;DHT22;38223;50.940;4.034;2023-08-12T10:05:32;21.80;99.90
52267;DHT22;38223;50.940;4.034;2023-08-12T10:08:07;21.70;99.90
52267;DHT22;38223;50.940;4.034;2023-08-12T10:10:37;21.70;99.90
52267;DHT22;38223;50.940;4.034;2023-08-12T10:13:11;21.50;99.90
52267;DHT22;38223;50.940;4.034;2023-08-12T10:15:43;21.50;99.90
52267;DHT22;38223;50.940;4.034;2023-08-12T10:18:17;21.70;99.90
52267;DHT22;38223;50.940;4.034;2023-08-12T10:20:50;21.70;99.90
52267;DHT22;38223;50.940;4.034;2023-08-12T10:23:21;21.70;99.90
52267;DHT22;38223;50.940;4.034;2023-08-12T10:25:55;21.70;99.90
52267;DHT22;38223;50.940;4.034;2023-08-12T10:28:27;21.70;99.90
52267;DHT22;38223;50.940;4.034;2023-08-12T10:31:00;21.80;99.90
52267;DHT22;38223;50.940;4.034;2023-08-12T10:33:38;21.90;99.90
52267;DHT22;38223;50.940;4.034;2023-08-12T10:36:09;21.90;99.90
52267;DHT22;38223;50.940;4.034;2023-08-12T10:38:40;22.10;99.90
52267;DHT22;38223;50.940;4.034;2023-08-12T10:41:24;22.10;99.90
52267;DHT22;38223;50.940;4.034;2023-08-12T10:44:04;22.10;99.90
52267;DHT22;38223;50.940;4.034;2023-08-12T10:46:36;22.00;99.90
52267;DHT22;38223;50.940;4.034;2023-08-12T10:49:09;21.90;99.90
52267;DHT22;38223;50.940;4.034;2023-08-12T10:51:44;22.10;99.90
52267;DHT22;38223;50.940;4.034;2023-08-12T10:54:27;22.20;99.90
52267;DHT22;38223;50.940;4.034;2023-08-12T10:57:11;22.30;99.90
52267;DHT22;38223;50.940;4.034;2023-08-12T10:59:56;22.40;99.90
52267;DHT22;38223;50.940;4.034;2023-08-12T11:02:32;22.40;99.90
52267;DHT22;38223;50.940;4.034;2023-08-12T11:05:10;22.40;99.90
52267;DHT22;38223;50.940;4.034;2023-08-12T11:07:46;22.40;99.90
52267;DHT22;38223;50.940;4.034;2023-08-12T11:10:22;22.50;99.90
52267;DHT22;38223;50.940;4.034;2023-08-12T11:12:58;22.50;99.90
52267;DHT22;38223;50.940;4.034;2023-08-12T11:15:38;22.60;99.90
52267;DHT22;38223;50.940;4.034;2023-08-12T11:18:21;22.40;99.90
52267;DHT22;38223;50.940;4.034;2023-08-12T11:20:55;22.60;99.90
52267;DHT22;38223;50.940;4.034;2023-08-12T11:23:29;22.70;99.90
52267;DHT22;38223;50.940;4.034;2023-08-12T11:26:01;22.80;99.90
52267;DHT22;38223;50.940;4.034;2023-08-12T11:28:33;22.80;99.90
52267;DHT22;38223;50.940;4.034;2023-08-12T11:31:03;22.80;99.90
52267;DHT22;38223;50.940;4.034;2023-08-12T11:33:39;22.80;99.90
52267;DHT22;38223;50.940;4.034;2023-08-12T11:36:11;23.00;99.90
52267;DHT22;38223;50.940;4.034;2023-08-12T11:38:45;23.10;99.90
52267;DHT22;38223;50.940;4.034;2023-08-12T11:41:16;23.20;99.90
52267;DHT22;38223;50.940;4.034;2023-08-12T11:43:45;23.30;99.90
52267;DHT22;38223;50.940;4.034;2023-08-12T11:46:15;23.40;99.90
52267;DHT22;38223;50.940;4.034;2023-08-12T11:48:47;23.70;99.90
52267;DHT22;38223;50.940;4.034;2023-08-12T11:51:19;23.70;99.90
52267;DHT22;38223;50.940;4.034;2023-08-12T11:53:56;23.70;99.90
52267;DHT22;38223;50.940;4.034;2023-08-12T11:56:25;23.80;99.90
52267;DHT22;38223;50.940;4.034;2023-08-12T11:58:57;23.80;99.90
52267;DHT22;38223;50.940;4.034;2023-08-12T12:01:28;23.80;99.90
52267;DHT22;38223;50.940;4.034;2023-08-12T12:04:01;23.90;99.90
52267;DHT22;38223;50.940;4.034;2023-08-12T12:06:38;23.90;99.90
52267;DHT22;38223;50.940;4.034;2023-08-12T12:09:11;24.00;99.90
52267;DHT22;38223;50.940;4.034;2023-08-12T12:11:42;24.00;99.90
52267;DHT22;38223;50.940;4.034;2023-08-12T12:14:16;24.10;99.90
52267;DHT22;38223;50.940;4.034;2023-08-12T12:16:47;24.10;99.90
52267;DHT22;38223;50.940;4.034;2023-08-12T12:19:23;24.10;99.90
52267;DHT22;38223;50.940;4.034;2023-08-12T12:21:55;24.10;99.90
52267;DHT22;38223;50.940;4.034;2023-08-12T12:24:29;24.20;99.90
52267;DHT22;38223;50.940;4.034;2023-08-12T12:26:58;24.10;99.90
52267;DHT22;38223;50.940;4.034;2023-08-12T12:29:30;24.10;99.90
52267;DHT22;38223;50.940;4.034;2023-08-12T12:31:59;24.00;99.90
52267;DHT22;38223;50.940;4.034;2023-08-12T12:34:34;24.00;99.90
52267;DHT22;38223;50.940;4.034;2023-08-12T12:39:53;24.30;99.90
52267;DHT22;38223;50.940;4.034;2023-08-12T12:42:29;24.30;99.90
52267;DHT22;38223;50.940;4.034;2023-08-12T12:45:02;24.10;99.90
52267;DHT22;38223;50.940;4.034;2023-08-12T12:47:37;24.00;99.90
52267;DHT22;38223;50.940;4.034;2023-08-12T12:50:07;24.00;99.90
52267;DHT22;38223;50.940;4.034;2023-08-12T12:52:39;23.90;99.90
52267;DHT22;38223;50.940;4.034;2023-08-12T12:55:10;24.00;99.90
52267;DHT22;38223;50.940;4.034;2023-08-12T12:57:44;24.10;99.90
52267;DHT22;38223;50.940;4.034;2023-08-12T13:00:14;24.30;99.90
52267;DHT22;38223;50.940;4.034;2023-08-12T13:02:45;24.20;99.90
52267;DHT22;38223;50.940;4.034;2023-08-12T13:05:15;24.30;99.90
52267;DHT22;38223;50.940;4.034;2023-08-12T13:07:55;24.40;99.90
52267;DHT22;38223;50.940;4.034;2023-08-12T13:10:24;24.60;99.90
52267;DHT22;38223;50.940;4.034;2023-08-12T13:12:52;24.90;99.90
52267;DHT22;38223;50.940;4.034;2023-08-12T13:15:22;25.10;99.90
52267;DHT22;38223;50.940;4.034;2023-08-12T13:17:53;25.20;99.90
52267;DHT22;38223;50.940;4.034;2023-08-12T13:20:23;25.10;99.90
52267;DHT22;38223;50.940;4.034;2023-08-12T13:22:54;25.20;99.90
52267;DHT22;38223;50.940;4.034;2023-08-12T13:25:24;25.20;99.90
52267;DHT22;38223;50.940;4.034;2023-08-12T13:27:58;25.00;99.90
52267;DHT22;38223;50.940;4.034;2023-08-12T13:30:30;24.60;99.90
52267;DHT22;38223;50.940;4.034;2023-08-12T13:33:04;24.20;99.90
52267;DHT22;38223;50.940;4.034;2023-08-12T13:35:37;24.20;99.90
52267;DHT22;38223;50.940;4.034;2023-08-12T13:38:08;24.30;99.90
52267;DHT22;38223;50.940;4.034;2023-08-12T13:40:40;24.40;99.90
52267;DHT22;38223;50.940;4.034;2023-08-12T13:43:14;24.20;99.90
52267;DHT22;38223;50.940;4.034;2023-08-12T13:45:42;24.00;99.90
52267;DHT22;38223;50.940;4.034;2023-08-12T13:48:14;24.10;99.90
52267;DHT22;38223;50.940;4.034;2023-08-12T13:50:46;24.10;99.90
52267;DHT22;38223;50.940;4.034;2023-08-12T13:53:17;24.20;99.90
52267;DHT22;38223;50.940;4.034;2023-08-12T13:55:50;24.50;99.90
52267;DHT22;38223;50.940;4.034;2023-08-12T13:58:18;24.60;99.90
52267;DHT22;38223;50.940;4.034;2023-08-12T14:00:48;24.70;99.90
52267;DHT22;38223;50.940;4.034;2023-08-12T14:03:16;24.60;99.90
52267;DHT22;38223;50.940;4.034;2023-08-12T14:05:50;24.50;99.90
52267;DHT22;38223;50.940;4.034;2023-08-12T14:08:20;24.70;99.90
52267;DHT22;38223;50.940;4.034;2023-08-12T14:10:53;24.80;99.90
52267;DHT22;38223;50.940;4.034;2023-08-12T14:13:26;25.10;99.90
52267;DHT22;38223;50.940;4.034;2023-08-12T14:15:56;25.30;99.90
52267;DHT22;38223;50.940;4.034;2023-08-12T14:18:26;25.20;99.90
52267;DHT22;38223;50.940;4.034;2023-08-12T14:20:58;25.20;99.90
52267;DHT22;38223;50.940;4.034;2023-08-12T14:23:28;25.20;99.90
52267;DHT22;38223;50.940;4.034;2023-08-12T14:25:59;25.00;99.90
52267;DHT22;38223;50.940;4.034;2023-08-12T14:28:31;24.90;99.90
52267;DHT22;38223;50.940;4.034;2023-08-12T14:31:01;24.80;99.90
52267;DHT22;38223;50.940;4.034;2023-08-12T14:33:30;24.80;99.90
52267;DHT22;38223;50.940;4.034;2023-08-12T14:36:06;24.90;99.90
52267;DHT22;38223;50.940;4.034;2023-08-12T14:38:38;25.10;99.90
52267;DHT22;38223;50.940;4.034;2023-08-12T14:41:13;25.40;99.90
52267;DHT22;38223;50.940;4.034;2023-08-12T14:43:44;25.70;99.90
52267;DHT22;38223;50.940;4.034;2023-08-12T14:46:21;25.80;99.90
52267;DHT22;38223;50.940;4.034;2023-08-12T14:48:49;25.80;99.90
52267;DHT22;38223;50.940;4.034;2023-08-12T14:51:24;25.70;99.90
52267;DHT22;38223;50.940;4.034;2023-08-12T14:53:53;25.60;99.90
52267;DHT22;38223;50.940;4.034;2023-08-12T14:56:27;25.50;99.90
52267;DHT22;38223;50.940;4.034;2023-08-12T14:58:57;25.50;99.90
52267;DHT22;38223;50.940;4.034;2023-08-12T15:01:31;25.70;99.90
52267;DHT22;38223;50.940;4.034;2023-08-12T15:04:00;25.70;99.90
52267;DHT22;38223;50.940;4.034;2023-08-12T15:06:30;25.80;99.90
52267;DHT22;38223;50.940;4.034;2023-08-12T15:08:59;26.10;99.90
52267;DHT22;38223;50.940;4.034;2023-08-12T15:11:31;26.00;99.90
52267;DHT22;38223;50.940;4.034;2023-08-12T15:14:05;26.20;99.90
52267;DHT22;38223;50.940;4.034;2023-08-12T15:16:39;26.00;99.90
52267;DHT22;38223;50.940;4.034;2023-08-12T15:19:09;25.80;99.90
52267;DHT22;38223;50.940;4.034;2023-08-12T15:21:39;25.20;99.90
52267;DHT22;38223;50.940;4.034;2023-08-12T15:24:11;25.30;99.90
52267;DHT22;38223;50.940;4.034;2023-08-12T15:26:42;25.60;99.90
52267;DHT22;38223;50.940;4.034;2023-08-12T15:29:15;26.10;99.90
52267;DHT22;38223;50.940;4.034;2023-08-12T15:31:43;26.60;99.90
52267;DHT22;38223;50.940;4.034;2023-08-12T15:34:12;26.70;99.90
52267;DHT22;38223;50.940;4.034;2023-08-12T15:36:45;26.10;99.90
52267;DHT22;38223;50.940;4.034;2023-08-12T15:39:14;26.00;99.90
52267;DHT22;38223;50.940;4.034;2023-08-12T15:41:48;26.40;99.90
52267;DHT22;38223;50.940;4.034;2023-08-12T15:44:19;26.30;99.90
52267;DHT22;38223;50.940;4.034;2023-08-12T15:46:49;25.80;99.90
52267;DHT22;38223;50.940;4.034;2023-08-12T15:49:22;25.60;99.90
52267;DHT22;38223;50.940;4.034;2023-08-12T15:51:52;25.50;99.90
52267;DHT22;38223;50.940;4.034;2023-08-12T15:54:27;25.20;99.90
52267;DHT22;38223;50.940;4.034;2023-08-12T15:56:56;25.00;99.90
52267;DHT22;38223;50.940;4.034;2023-08-12T15:59:31;24.80;99.90
52267;DHT22;38223;50.940;4.034;2023-08-12T16:02:04;24.70;99.90
52267;DHT22;38223;50.940;4.034;2023-08-12T16:04:36;24.90;99.90
52267;DHT22;38223;50.940;4.034;2023-08-12T16:07:10;24.80;99.90
52267;DHT22;38223;50.940;4.034;2023-08-12T16:09:45;24.70;99.90
52267;DHT22;38223;50.940;4.034;2023-08-12T16:12:14;24.70;99.90
52267;DHT22;38223;50.940;4.034;2023-08-12T16:14:45;24.80;99.90